• Join FlightAware (Why Join?)
  • Login
  • US Flag 
Rudolph Flight #1: Arrived! 
10:07AM EST


 

Airport Tracker/Info


-or-


 

Live Flight TrackerFlight Track Log ✈ N260NC ✈ 11-Aug-2013 ✈ K62 - 1H0

Flight Track Log - Related Links

Times and Time Zones

All times are in EDT time to prevent confusion due to time zone crossing. See the N260NC flight status page for this flight to view local times or setup timezone preferences in your user account.

Time Position Orientation Groundspeed Altitude Reporting Facility
EDT Latitude Longitude Course Direction KTS MPH feet Rate Location/Type
12:03PM 38.7000 -84.5333 270° West 110 127 2,000  Level Cincinnati TRACON
12:04PM 38.7000 -84.5833 270° West 122 140 2,000 240 Level Cincinnati TRACON
12:05PM 38.7167 -84.6167 303° West 111 128 2,500 540 Climbing Cincinnati TRACON
12:06PM 38.7167 -84.6500 270° West 104 120 3,100 600 Climbing Cincinnati TRACON
12:07PM 38.7333 -84.6833 303° West 101 116 3,700 600 Climbing Cincinnati TRACON
12:08PM 38.7333 -84.7167 270° West 105 121 4,300 540 Climbing Cincinnati TRACON
12:08PM 38.7339 -84.7522 271° West 118 136 4,800 480 Climbing Indianapolis Center
12:09PM 38.7356 -84.7903 273° West 107 123 5,300 480 Climbing Indianapolis Center
12:11PM 38.7392 -84.8317 276° West 110 127 5,900 480 Climbing Indianapolis Center
12:12PM 38.7428 -84.8708 277° West 112 129 6,300 480 Climbing Indianapolis Center
12:13PM 38.7472 -84.9100 278° West 112 129 6,900 480 Climbing Indianapolis Center
12:14PM 38.7503 -84.9492 276° West 111 128 7,400 420 Climbing Indianapolis Center
12:15PM 38.7572 -84.9869 283° West 110 127 7,800 300 Climbing Indianapolis Center
12:16PM 38.7575 -85.0383 270° West 121 139 8,100 120 Climbing Indianapolis Center
12:17PM 38.7542 -85.0878 265° West 137 158 8,100  Level Indianapolis Center
12:18PM 38.7553 -85.1386 272° West 143 165 8,100  Level Indianapolis Center
12:19PM 38.7644 -85.1883 283° West 144 166 8,100  Level Indianapolis Center
12:20PM 38.7800 -85.2347 293° West 142 163 8,100  Level Indianapolis Center
12:21PM 38.7950 -85.2797 293° West 139 160 8,100  Level Indianapolis Center
12:22PM 38.8028 -85.3303 281° West 143 165 8,100  Level Indianapolis Center
12:23PM 38.8061 -85.3911 274° West 143 165 8,100  Level Indianapolis Center
12:24PM 38.8106 -85.4411 277° West 141 162 8,100  Level Indianapolis Center
12:25PM 38.8181 -85.4883 282° West 137 158 8,100  Level Indianapolis Center
12:26PM 38.8228 -85.5361 277° West 137 158 8,100  Level Indianapolis Center
12:27PM 38.8233 -85.5850 271° West 136 157 8,100  Level Indianapolis Center
12:28PM 38.8200 -85.6331 265° West 135 155 8,100  Level Indianapolis Center
12:29PM 38.8072 -85.6806 251° West 139 160 8,100  Level Indianapolis Center
12:30PM 38.7939 -85.7364 253° West 139 160 8,100  Level Indianapolis Center
12:31PM 38.7831 -85.7828 253° West 138 159 8,100  Level Indianapolis Center
12:32PM 38.7717 -85.8289 252° West 137 158 8,100  Level Indianapolis Center
12:33PM 38.7683 -85.8783 265° West 141 162 8,100  Level Indianapolis Center
12:34PM 38.7700 -85.9289 272° West 141 162 8,100  Level Indianapolis Center
12:35PM 38.7708 -85.9789 271° West 140 161 8,100  Level Indianapolis Center
12:36PM 38.7703 -86.0281 269° West 138 159 8,100  Level Indianapolis Center
12:37PM 38.7772 -86.0881 278° West 141 162 8,100  Level Indianapolis Center
12:38PM 38.7825 -86.1389 278° West 143 165 8,100  Level Indianapolis Center
12:39PM 38.7831 -86.1875 271° West 139 160 8,100  Level Indianapolis Center
12:40PM 38.7825 -86.2369 269° West 138 159 8,100  Level Indianapolis Center
12:41PM 38.7831 -86.2883 271° West 142 163 8,100  Level Indianapolis Center
12:42PM 38.7822 -86.3386 269° West 141 162 8,100  Level Indianapolis Center
12:43PM 38.7836 -86.3903 272° West 144 166 8,100  Level Indianapolis Center
12:44PM 38.7831 -86.4400 269° West 142 163 8,100  Level Indianapolis Center
12:46PM 38.7831 -86.4992 270° West 139 160 8,100  Level Indianapolis Center
12:47PM 38.7839 -86.5503 271° West 140 161 8,100  Level Indianapolis Center
12:48PM 38.7839 -86.6000 270° West 140 161 8,100  Level Indianapolis Center
12:49PM 38.7839 -86.6497 270° West 140 161 8,100  Level Indianapolis Center
12:50PM 38.7828 -86.6994 268° West 140 161 8,100  Level Indianapolis Center
12:51PM 38.7839 -86.7494 272° West 140 161 8,100  Level Indianapolis Center
12:52PM 38.7839 -86.7989 270° West 140 161 8,100  Level Indianapolis Center
12:53PM 38.7836 -86.8481 270° West 138 159 8,100  Level Indianapolis Center
12:54PM 38.7836 -86.9058 270° West 136 157 8,100 -60 Level Indianapolis Center
12:55PM 38.7836 -86.9550 270° West 137 158 8,000 -60 Descending Indianapolis Center
12:56PM 38.7833 -87.0039 270° West 137 158 8,000  Level Indianapolis Center
12:57PM 38.7825 -87.0525 269° West 137 158 8,000  Level Indianapolis Center
12:58PM 38.7831 -87.1006 271° West 136 157 8,000  Level Indianapolis Center
12:59PM 38.7822 -87.1506 269° West 139 160 8,000  Level Indianapolis Center
01:00PM 38.7819 -87.2094 270° West 139 160 8,000  Level Indianapolis Center
01:01PM 38.7825 -87.2586 271° West 138 159 8,000  Level Indianapolis Center
01:02PM 38.7822 -87.3078 270° West 139 160 8,100  Climbing Indianapolis Center
01:03PM 38.7825 -87.3578 270° West 139 160 8,100  Level Indianapolis Center
01:04PM 38.7825 -87.4086 270° West 141 162 8,100  Level Indianapolis Center
01:05PM 38.7817 -87.4572 269° West 139 160 8,100  Level Indianapolis Center
01:06PM 38.7819 -87.5081 270° West 141 162 8,100  Level Indianapolis Center
01:07PM 38.7814 -87.5683 269° West 141 162 8,100  Level Indianapolis Center
01:08PM 38.7808 -87.6189 269° West 142 163 8,100  Level Indianapolis Center
01:09PM 38.7800 -87.6686 269° West 140 161 8,100  Level Indianapolis Center
01:10PM 38.7806 -87.7192 271° West 140 161 8,100  Level Indianapolis Center
01:11PM 38.7803 -87.7697 270° West 141 162 8,100  Level Indianapolis Center
01:12PM 38.7783 -87.8231 267° West 146 168 8,100  Level Indianapolis Center
01:13PM 38.7786 -87.8758 270° West 148 170 8,100  Level Indianapolis Center
01:14PM 38.7792 -87.9375 271° West 145 167 8,100  Level Indianapolis Center
01:15PM 38.7778 -87.9903 268° West 148 170 8,100  Level Indianapolis Center
01:16PM 38.7775 -88.0422 270° West 146 168 8,100  Level Indianapolis Center
01:18PM 38.7769 -88.0950 269° West 147 169 8,100  Level Indianapolis Center
01:19PM 38.7764 -88.1483 269° West 147 169 8,100  Level Kansas City Center
01:20PM 38.7761 -88.2103 270° West 145 167 8,100  Level Kansas City Center
01:21PM 38.7750 -88.2631 268° West 146 168 8,100  Level Kansas City Center
01:22PM 38.7739 -88.3172 269° West 150 173 8,100  Level Kansas City Center
01:23PM 38.7742 -88.3686 270° West 146 168 8,100  Level Kansas City Center
01:24PM 38.7731 -88.4219 268° West 148 170 8,100  Level Kansas City Center
01:25PM 38.7725 -88.4744 269° West 148 170 8,100  Level Kansas City Center
01:26PM 38.7717 -88.5272 269° West 148 170 8,100  Level Kansas City Center
01:27PM 38.7719 -88.5903 270° West 146 168 8,100  Level Kansas City Center
01:28PM 38.7700 -88.6375 267° West 148 170 8,100  Level Kansas City Center
01:29PM 38.7689 -88.6908 268° West 149 171 8,100  Level Kansas City Center
01:30PM 38.7672 -88.7536 268° West 148 170 8,100  Level Kansas City Center
01:31PM 38.7681 -88.8056 271° West 146 168 8,100  Level Kansas City Center
01:32PM 38.7656 -88.8583 267° West 148 170 8,100  Level Kansas City Center
01:33PM 38.7639 -88.9117 268° West 149 171 8,100  Level Kansas City Center
01:34PM 38.7644 -88.9656 271° West 151 174 8,100  Level Kansas City Center
01:35PM 38.7633 -89.0272 269° West 151 174 8,100  Level Kansas City Center
01:36PM 38.7617 -89.0836 268° West 148 170 8,100  Level Kansas City Center
01:37PM 38.7608 -89.1372 269° West 149 171 8,100 -240 Level Kansas City Center
01:38PM 38.7597 -89.1975 269° West 157 181 7,600 -480 Descending Kansas City Center
01:39PM 38.7589 -89.2550 269° West 161 185 7,200 -480 Descending Kansas City Center
01:40PM 38.7575 -89.3114 268° West 159 183 6,700 -600 Descending Kansas City Center
01:41PM 38.7567 -89.3719 269° West 158 182 6,100 -480 Descending Kansas City Center
01:42PM 38.7558 -89.4258 269° West 153 176 5,700 -420 Descending Kansas City Center
01:43PM 38.7539 -89.4844 268° West 154 177 5,300 -300 Descending Kansas City Center
01:44PM 38.7525 -89.5389 268° West 153 176 5,100 -120 Descending Kansas City Center
01:46PM 38.7514 -89.5944 269° West 147 169 5,100 -60 Level Kansas City Center
01:47PM 38.7494 -89.6492 267° West 154 177 5,000 -300 Descending Kansas City Center
01:48PM 38.7200 -89.6850 224° Southwest 161 185 4,500 -420 Descending Kansas City Center
01:49PM 38.6839 -89.7339 227° Southwest 160 184 4,200 -240 Descending Kansas City Center
01:50PM 38.6553 -89.7717 226° Southwest 155 178 4,100 -60 Descending Kansas City Center
01:51PM 38.6272 -89.8119 228° Southwest 152 175 4,100  Level Kansas City Center
01:52PM 38.5983 -89.8533 228° Southwest 154 177 4,100  Level Kansas City Center
01:53PM 38.5744 -89.8989 236° Southwest 154 177 4,100  Level Kansas City Center
01:54PM 38.5494 -89.9444 235° Southwest 155 178 4,100 -120 Level Kansas City Center
01:55PM 38.5222 -90.0014 239° Southwest 155 178 3,900 -300 Descending Kansas City Center
01:56PM 38.5064 -90.0481 247° West 150 173 3,600 -360 Descending Kansas City Center
01:57PM 38.4911 -90.0922 246° West 143 165 3,200 -240 Descending Kansas City Center
01:58PM 38.4744 -90.1358 244° Southwest 139 160 3,100 -60 Descending Kansas City Center
01:59PM 38.4567 -90.1817 244° Southwest 140 161 3,100 -60 Level Kansas City Center
02:00PM 38.4372 -90.2319 244° Southwest 143 165 3,000 -120 Descending Kansas City Center